createdAt,value
2022-11-09T00:01:27.456Z,19.83
2022-11-09T00:03:59.138Z,19.30
2022-11-09T00:06:27.169Z,18.25
2022-11-09T00:08:54.571Z,21.42
2022-11-09T00:11:21.752Z,19.80
2022-11-09T00:13:49.462Z,18.13
2022-11-09T00:16:19.031Z,19.10
2022-11-09T00:18:49.004Z,17.67
2022-11-09T00:21:20.924Z,17.15
2022-11-09T00:23:48.273Z,18.48
2022-11-09T00:26:17.090Z,17.52
2022-11-09T00:28:43.996Z,22.05
2022-11-09T00:31:14.022Z,20.42
2022-11-09T00:33:41.068Z,19.05
2022-11-09T00:36:12.083Z,25.23
2022-11-09T00:38:40.688Z,24.23
2022-11-09T00:41:09.932Z,24.67
2022-11-09T00:43:37.626Z,23.15
2022-11-09T00:46:06.098Z,20.45
2022-11-09T00:48:33.276Z,25.35
2022-11-09T00:51:02.314Z,23.75
2022-11-09T00:53:30.554Z,26.13
2022-11-09T00:55:58.655Z,21.98
2022-11-09T00:58:31.093Z,25.10
2022-11-09T01:00:59.416Z,22.83
2022-11-09T01:03:27.300Z,24.67
2022-11-09T01:05:54.338Z,22.10
2022-11-09T01:08:21.165Z,20.42
2022-11-09T01:10:48.922Z,17.77
2022-11-09T01:13:18.240Z,14.88
2022-11-09T01:15:51.433Z,19.42
2022-11-09T01:18:20.107Z,17.20
2022-11-09T01:20:49.109Z,13.77
2022-11-09T01:23:18.619Z,13.70
2022-11-09T01:25:45.946Z,12.52
2022-11-09T01:28:13.029Z,13.82
2022-11-09T01:30:42.419Z,11.38
2022-11-09T01:33:12.103Z,13.80
2022-11-09T01:35:40.580Z,14.95
2022-11-09T01:38:08.987Z,14.73
2022-11-09T01:40:38.559Z,14.73
2022-11-09T01:43:21.350Z,16.00
2022-11-09T01:45:52.152Z,13.32
2022-11-09T01:48:34.717Z,15.30
2022-11-09T01:51:28.119Z,15.27
2022-11-09T01:54:02.690Z,10.35
2022-11-09T01:56:32.622Z,11.48
2022-11-09T01:59:04.106Z,12.93
2022-11-09T02:01:32.135Z,15.93
2022-11-09T02:04:07.107Z,14.20
2022-11-09T02:06:35.612Z,13.90
2022-11-09T02:09:19.893Z,11.55
2022-11-09T02:11:46.738Z,16.25
2022-11-09T02:14:13.931Z,13.63
2022-11-09T02:16:41.141Z,13.88
2022-11-09T02:19:08.085Z,10.85
2022-11-09T02:21:35.091Z,13.50
2022-11-09T02:24:02.039Z,12.85
2022-11-09T02:26:37.682Z,11.73
2022-11-09T02:29:07.834Z,20.27
2022-11-09T02:31:38.776Z,11.02
2022-11-09T02:34:12.046Z,11.20
2022-11-09T02:36:39.074Z,23.90
2022-11-09T02:39:12.976Z,11.85
2022-11-09T02:41:48.358Z,17.40
2022-11-09T02:44:16.739Z,16.85
2022-11-09T02:46:43.887Z,13.93
2022-11-09T02:49:11.560Z,15.02
2022-11-09T02:51:38.717Z,11.90
2022-11-09T02:54:05.638Z,16.27
2022-11-09T02:56:32.537Z,17.00
2022-11-09T02:58:59.967Z,12.60
2022-11-09T03:01:26.913Z,13.13
2022-11-09T03:03:53.791Z,13.15
2022-11-09T03:26:00.770Z,23.63
2022-11-09T03:28:28.705Z,16.90
2022-11-09T03:30:56.722Z,19.05
2022-11-09T03:33:23.806Z,22.05
2022-11-09T03:35:51.455Z,15.25
2022-11-09T03:38:19.595Z,19.05
2022-11-09T03:40:47.678Z,17.55
2022-11-09T03:43:14.737Z,24.40
2022-11-09T03:45:42.189Z,26.48
2022-11-09T03:48:09.156Z,20.52
2022-11-09T03:50:40.416Z,18.73
2022-11-09T03:53:09.665Z,12.82
2022-11-09T03:55:37.112Z,19.60
2022-11-09T03:58:05.315Z,15.93
2022-11-09T04:00:32.549Z,13.75
2022-11-09T04:02:59.696Z,12.68
2022-11-09T04:05:26.745Z,14.93
2022-11-09T04:07:55.631Z,17.00
2022-11-09T04:10:23.908Z,19.05
2022-11-09T04:12:50.688Z,18.23
2022-11-09T04:15:17.740Z,15.13
2022-11-09T04:17:47.361Z,15.00
2022-11-09T04:20:14.255Z,19.88
2022-11-09T04:22:41.194Z,13.68
2022-11-09T04:25:08.358Z,17.58
2022-11-09T04:27:35.179Z,21.17
2022-11-09T04:30:02.022Z,19.02
2022-11-09T04:32:28.859Z,20.27
2022-11-09T04:34:55.676Z,19.85
2022-11-09T04:37:22.570Z,21.45
2022-11-09T04:39:49.379Z,17.92
2022-11-09T04:42:16.233Z,19.25
2022-11-09T04:44:43.047Z,18.30
2022-11-09T04:47:09.931Z,16.23
2022-11-09T04:49:36.816Z,18.33
2022-11-09T04:52:06.488Z,17.95
2022-11-09T04:54:34.083Z,16.67
2022-11-09T04:57:00.924Z,16.95
2022-11-09T04:59:27.831Z,20.65
2022-11-09T05:01:54.745Z,22.00
2022-11-09T05:04:21.546Z,16.48
2022-11-09T05:06:48.353Z,20.52
2022-11-09T05:09:15.313Z,16.40
2022-11-09T05:11:42.118Z,22.42
2022-11-09T05:14:08.926Z,21.52
2022-11-09T05:16:35.876Z,22.27
2022-11-09T05:19:02.788Z,25.55
2022-11-09T05:21:29.556Z,23.02
2022-11-09T05:23:59.483Z,26.83
2022-11-09T05:26:34.634Z,32.00
2022-11-09T05:29:03.640Z,28.60
2022-11-09T05:31:31.231Z,28.08
2022-11-09T05:33:59.447Z,31.00
2022-11-09T05:36:28.065Z,29.58
2022-11-09T05:38:55.477Z,31.40
2022-11-09T05:41:22.440Z,33.38
2022-11-09T05:43:49.347Z,33.67
2022-11-09T05:46:17.373Z,24.70
2022-11-09T05:48:45.384Z,30.67
2022-11-09T05:51:14.192Z,25.92
2022-11-09T05:53:46.180Z,33.67
2022-11-09T05:56:15.460Z,30.90
2022-11-09T05:58:42.991Z,35.13
2022-11-09T06:01:12.630Z,51.55
2022-11-09T06:03:40.497Z,29.75
2022-11-09T06:06:09.255Z,39.15
2022-11-09T06:08:37.903Z,28.92
2022-11-09T06:11:07.960Z,34.85
2022-11-09T06:13:34.810Z,32.72
2022-11-09T06:16:03.716Z,39.40
2022-11-09T06:18:32.508Z,28.95
2022-11-09T06:21:02.645Z,30.08
2022-11-09T06:23:30.350Z,26.15
2022-11-09T06:26:02.023Z,78.93
2022-11-09T06:28:29.389Z,37.40
2022-11-09T06:31:00.539Z,25.65
2022-11-09T06:33:29.886Z,34.30
2022-11-09T06:35:57.790Z,30.17
2022-11-09T06:38:26.585Z,30.13
2022-11-09T06:40:57.754Z,32.80
2022-11-09T06:43:25.564Z,31.65
2022-11-09T06:45:52.904Z,27.60
2022-11-09T06:48:20.544Z,40.80
2022-11-09T06:50:47.455Z,31.42
2022-11-09T06:53:16.639Z,38.33
2022-11-09T06:55:49.122Z,37.28
2022-11-09T06:58:17.363Z,40.45
2022-11-09T07:00:44.864Z,41.08
2022-11-09T07:03:16.624Z,37.45
2022-11-09T07:05:43.817Z,37.58
2022-11-09T07:08:11.139Z,47.03
2022-11-09T07:10:38.093Z,45.58
2022-11-09T07:13:05.820Z,41.90
2022-11-09T07:15:33.913Z,45.13
2022-11-09T07:18:02.064Z,41.60
2022-11-09T07:20:29.657Z,55.70
2022-11-09T07:22:56.533Z,30.33
2022-11-09T07:25:23.557Z,38.33
2022-11-09T07:27:50.532Z,46.55
2022-11-09T07:30:17.544Z,30.85
2022-11-09T07:33:08.074Z,20.40
2022-11-09T07:35:31.516Z,39.50
2022-11-09T07:38:02.148Z,47.80
2022-11-09T07:40:30.407Z,40.85
2022-11-09T07:43:01.723Z,56.03
2022-11-09T07:45:32.913Z,39.22
2022-11-09T07:48:02.503Z,36.03
2022-11-09T07:50:30.791Z,50.80
2022-11-09T07:52:59.536Z,43.88
2022-11-09T07:55:27.436Z,41.88
2022-11-09T07:58:03.713Z,47.20
2022-11-09T08:00:32.477Z,47.30
2022-11-09T08:02:59.561Z,34.08
2022-11-09T08:05:26.702Z,36.70
2022-11-09T08:08:01.837Z,31.73
2022-11-09T08:10:30.826Z,25.92
2022-11-09T08:13:01.082Z,31.42
2022-11-09T08:15:28.862Z,28.85
2022-11-09T08:18:00.278Z,22.60
2022-11-09T08:20:27.228Z,19.83
2022-11-09T08:22:54.066Z,22.65
2022-11-09T08:25:20.939Z,25.38
2022-11-09T08:27:47.968Z,38.97
2022-11-09T08:30:20.317Z,46.60
2022-11-09T08:32:48.878Z,55.05
2022-11-09T08:35:18.794Z,79.13
2022-11-09T08:37:47.337Z,66.30
2022-11-09T08:40:16.774Z,83.00
2022-11-09T08:42:43.636Z,49.65
2022-11-09T08:45:11.623Z,46.88
2022-11-09T08:47:41.202Z,39.45
2022-11-09T08:50:09.457Z,35.33
2022-11-09T08:52:36.966Z,31.95
2022-11-09T08:55:04.938Z,17.25
2022-11-09T08:57:31.862Z,15.20
2022-11-09T08:59:58.773Z,18.17
2022-11-09T09:02:25.735Z,17.35
2022-11-09T09:04:52.512Z,13.30
2022-11-09T09:07:19.428Z,15.73
2022-11-09T09:09:46.257Z,14.32
2022-11-09T09:12:13.135Z,14.63
2022-11-09T09:14:40.047Z,12.70
2022-11-09T09:17:06.856Z,12.25
2022-11-09T09:19:34.844Z,14.77
2022-11-09T09:22:02.011Z,16.00
2022-11-09T09:24:28.932Z,12.07
2022-11-09T09:26:55.847Z,15.52
2022-11-09T09:29:22.739Z,12.60
2022-11-09T09:31:49.547Z,15.15
2022-11-09T09:34:16.427Z,15.35
2022-11-09T09:36:47.662Z,15.90
2022-11-09T09:39:15.730Z,17.05
2022-11-09T09:41:54.540Z,14.43
2022-11-09T09:44:36.523Z,18.73
2022-11-09T09:47:17.660Z,13.40
2022-11-09T09:49:49.926Z,16.08
2022-11-09T09:52:24.054Z,13.68
2022-11-09T09:55:05.292Z,14.75
2022-11-09T09:57:35.415Z,12.15
2022-11-09T10:00:07.838Z,18.13
2022-11-09T10:02:38.777Z,11.63
2022-11-09T10:05:14.618Z,11.85
2022-11-09T10:07:50.400Z,12.32
2022-11-09T10:10:46.345Z,13.45
2022-11-09T10:13:13.132Z,11.95
2022-11-09T10:15:51.577Z,9.88
2022-11-09T10:18:34.584Z,11.23
2022-11-09T10:21:36.500Z,12.02
2022-11-09T10:24:23.388Z,11.32
2022-11-09T10:27:01.324Z,11.52
2022-11-09T10:29:35.748Z,11.88
2022-11-09T10:32:14.531Z,11.07
2022-11-09T10:35:14.104Z,12.90
2022-11-09T10:37:46.999Z,12.32
2022-11-09T10:40:22.735Z,10.38
2022-11-09T10:43:15.177Z,16.40
2022-11-09T10:46:05.097Z,9.07
2022-11-09T10:48:52.014Z,11.68
2022-11-09T10:51:43.886Z,12.30
2022-11-09T10:54:35.467Z,10.05
2022-11-09T10:57:23.315Z,13.75
2022-11-09T11:00:19.980Z,12.30
2022-11-09T11:03:17.563Z,13.23
2022-11-09T11:06:14.941Z,11.40
2022-11-09T11:09:06.626Z,11.63
2022-11-09T11:12:20.384Z,9.05
2022-11-09T11:15:29.576Z,14.40
2022-11-09T11:18:25.191Z,8.07
2022-11-09T11:21:19.038Z,8.80
2022-11-09T11:24:18.508Z,7.55
2022-11-09T11:27:15.379Z,10.13
2022-11-09T11:30:04.032Z,9.43
2022-11-09T11:32:50.856Z,8.93
2022-11-09T11:35:50.282Z,10.45
2022-11-09T11:38:57.636Z,10.20
2022-11-09T11:42:10.237Z,9.40
2022-11-09T11:45:38.916Z,7.78
2022-11-09T11:48:26.899Z,9.73
2022-11-09T11:51:19.918Z,11.05
2022-11-09T11:54:34.297Z,12.57
2022-11-09T11:57:32.162Z,9.40
2022-11-09T12:00:20.105Z,9.77
2022-11-09T12:03:21.606Z,10.45
2022-11-09T12:06:10.184Z,14.57
2022-11-09T12:09:14.368Z,10.55
2022-11-09T12:12:24.378Z,9.90
2022-11-09T12:15:27.232Z,8.57
2022-11-09T12:18:33.887Z,7.53
2022-11-09T12:21:26.843Z,9.50
2022-11-09T12:24:24.152Z,8.40
2022-11-09T12:27:36.895Z,8.25
2022-11-09T12:30:26.585Z,8.95
2022-11-09T12:33:36.310Z,7.28
2022-11-09T12:36:31.437Z,7.47
2022-11-09T12:39:46.038Z,8.43
2022-11-09T12:42:34.525Z,10.80
2022-11-09T12:45:36.174Z,7.72
2022-11-09T12:48:31.114Z,7.50
2022-11-09T12:51:18.053Z,9.98
2022-11-09T12:54:11.455Z,9.18
2022-11-09T12:57:01.499Z,8.02
2022-11-09T12:59:49.920Z,7.93
2022-11-09T13:02:38.974Z,6.35
2022-11-09T13:05:27.590Z,9.93
2022-11-09T13:08:30.959Z,8.15
2022-11-09T13:11:41.157Z,9.32
2022-11-09T13:14:38.299Z,6.70
2022-11-09T13:17:23.793Z,9.07
2022-11-09T13:24:06.954Z,7.75
2022-11-09T13:27:00.603Z,5.53
2022-11-09T13:29:52.338Z,10.00
2022-11-09T13:33:01.357Z,8.10
2022-11-09T13:35:46.489Z,7.93
2022-11-09T13:38:33.144Z,7.28
2022-11-09T13:41:32.088Z,7.88
2022-11-09T13:44:19.393Z,6.47
2022-11-09T13:47:05.121Z,5.05
2022-11-09T13:49:52.163Z,8.20
2022-11-09T13:52:48.724Z,10.15
2022-11-09T13:55:38.398Z,7.47
2022-11-09T13:58:37.608Z,5.20
2022-11-09T14:01:34.275Z,6.63
2022-11-09T14:04:28.626Z,4.38
2022-11-09T14:07:24.637Z,5.63
2022-11-09T14:10:28.255Z,7.28
2022-11-09T14:13:46.034Z,6.60
2022-11-09T14:16:59.994Z,5.18
2022-11-09T14:19:48.536Z,7.80
2022-11-09T14:22:35.716Z,4.95
2022-11-09T14:25:24.337Z,5.47
2022-11-09T14:28:37.300Z,4.00
2022-11-09T14:31:31.889Z,6.00
2022-11-09T14:34:18.720Z,6.60
2022-11-09T14:37:06.614Z,5.32
2022-11-09T14:39:54.220Z,6.72
2022-11-09T14:42:45.940Z,5.90
2022-11-09T14:45:31.867Z,6.22
2022-11-09T14:48:19.557Z,6.63
2022-11-09T14:51:12.111Z,6.05
2022-11-09T14:54:00.738Z,10.10
2022-11-09T14:56:46.851Z,7.15
2022-11-09T14:59:34.670Z,9.13
2022-11-09T15:02:22.129Z,9.63
2022-11-09T15:05:08.086Z,11.23
2022-11-09T15:07:53.638Z,7.20
2022-11-09T15:10:39.599Z,10.30
2022-11-09T15:27:35.861Z,27.75
2022-11-09T15:30:59.386Z,7.47
2022-11-09T15:33:52.510Z,10.32
2022-11-09T15:36:42.021Z,9.48
2022-11-09T15:39:30.358Z,11.07
2022-11-09T15:42:15.782Z,11.60
2022-11-09T15:45:01.438Z,12.80
2022-11-09T15:48:05.125Z,13.52
2022-11-09T15:50:50.415Z,10.50
2022-11-09T15:53:35.858Z,14.02
2022-11-09T15:56:24.330Z,11.45
2022-11-09T15:59:22.850Z,17.83
2022-11-09T16:02:11.705Z,14.40
2022-11-09T16:04:57.296Z,15.13
2022-11-09T16:07:53.868Z,13.73
2022-11-09T16:10:40.731Z,16.45
2022-11-09T16:13:26.194Z,14.20
2022-11-09T16:16:13.288Z,13.73
2022-11-09T16:18:59.459Z,10.00
2022-11-09T16:21:44.716Z,17.13
2022-11-09T16:24:30.246Z,24.10
2022-11-09T16:27:47.972Z,12.35
2022-11-09T16:30:21.626Z,12.93
2022-11-09T16:33:07.185Z,14.93
2022-11-09T16:35:53.926Z,15.20
2022-11-09T16:38:46.139Z,13.30
2022-11-09T16:41:31.746Z,14.13
2022-11-09T16:44:22.072Z,14.32
2022-11-09T16:47:12.601Z,16.60
2022-11-09T16:49:57.878Z,20.23
2022-11-09T16:52:43.629Z,20.45
2022-11-09T16:55:29.263Z,14.07
2022-11-09T16:58:14.826Z,13.23
2022-11-09T17:01:20.500Z,20.50
2022-11-09T17:04:06.445Z,14.20
2022-11-09T17:06:52.545Z,24.10
2022-11-09T17:09:37.902Z,13.48
2022-11-09T17:12:23.285Z,11.63
2022-11-09T17:15:09.533Z,10.10
2022-11-09T17:17:55.321Z,15.27
2022-11-09T17:20:49.379Z,19.17
2022-11-09T17:23:34.898Z,15.82
2022-11-09T17:26:21.782Z,18.80
2022-11-09T17:29:07.396Z,16.30
2022-11-09T17:31:52.746Z,11.07
2022-11-09T17:34:38.304Z,13.25
2022-11-09T17:37:24.003Z,14.43
2022-11-09T17:40:09.916Z,19.58
2022-11-09T17:42:57.091Z,9.82
2022-11-09T17:45:42.508Z,13.75
2022-11-09T17:48:27.960Z,14.80
2022-11-09T17:51:14.776Z,18.20
2022-11-09T17:54:01.968Z,15.18
2022-11-09T17:56:47.012Z,13.00
2022-11-09T17:59:32.414Z,11.73
2022-11-09T18:02:18.653Z,14.40
2022-11-09T18:05:04.374Z,9.75
2022-11-09T18:07:50.082Z,80.70
2022-11-09T18:10:40.064Z,18.70
2022-11-09T18:13:26.517Z,14.73
2022-11-09T18:16:17.496Z,8.98
2022-11-09T18:19:04.645Z,7.85
2022-11-09T18:21:49.974Z,12.32
2022-11-09T18:24:36.643Z,14.40
2022-11-09T18:27:27.440Z,15.98
2022-11-09T18:30:17.164Z,14.43
2022-11-09T18:33:02.527Z,13.35
2022-11-09T18:36:02.476Z,10.30
2022-11-09T18:38:48.092Z,9.27
2022-11-09T18:41:33.885Z,11.45
2022-11-09T18:44:19.388Z,12.90
2022-11-09T18:47:08.637Z,15.38
2022-11-09T18:49:54.614Z,12.27
2022-11-09T18:52:40.239Z,10.18
2022-11-09T18:55:25.818Z,10.98
2022-11-09T18:58:11.049Z,8.18
2022-11-09T19:01:05.657Z,9.95
2022-11-09T19:03:56.313Z,11.25
2022-11-09T19:06:44.823Z,7.80
2022-11-09T19:09:38.729Z,13.98
2022-11-09T19:12:25.161Z,7.95
2022-11-09T19:15:11.189Z,11.88
2022-11-09T19:17:56.879Z,10.88
2022-11-09T19:20:42.678Z,10.75
2022-11-09T19:23:33.826Z,12.93
2022-11-09T19:26:20.477Z,12.98
2022-11-09T19:29:07.544Z,13.20
2022-11-09T19:31:53.511Z,16.50
2022-11-09T19:34:41.078Z,17.98
2022-11-09T19:37:26.260Z,15.90
2022-11-09T19:40:12.200Z,12.40
2022-11-09T19:42:57.677Z,13.73
2022-11-09T19:45:43.151Z,11.30
2022-11-09T19:48:28.586Z,13.73
2022-11-09T19:51:15.717Z,16.42
2022-11-09T19:54:03.405Z,14.00
2022-11-09T19:56:49.131Z,9.05
2022-11-09T19:59:35.611Z,11.40
2022-11-09T20:02:21.148Z,16.38
2022-11-09T20:05:07.565Z,5.85
2022-11-09T20:07:53.207Z,8.80
2022-11-09T20:10:38.781Z,9.98
2022-11-09T20:13:24.948Z,9.63
2022-11-09T20:16:10.945Z,12.00
2022-11-09T20:18:56.467Z,18.20
2022-11-09T20:21:42.741Z,13.05
2022-11-09T20:24:27.924Z,12.80
2022-11-09T20:27:14.708Z,9.65
2022-11-09T20:30:00.476Z,10.15
2022-11-09T20:32:45.990Z,10.55
2022-11-09T20:35:31.460Z,13.93
2022-11-09T20:38:17.127Z,11.90
2022-11-09T20:41:05.667Z,10.85
2022-11-09T20:43:51.052Z,9.05
2022-11-09T20:46:37.105Z,8.27
2022-11-09T20:49:22.538Z,13.50
2022-11-09T20:52:07.894Z,11.02
2022-11-09T20:54:53.412Z,8.13
2022-11-09T20:57:38.622Z,9.15
2022-11-09T21:00:24.734Z,8.32
2022-11-09T21:03:10.527Z,10.27
2022-11-09T21:05:59.083Z,9.57
2022-11-09T21:08:47.325Z,11.15
2022-11-09T21:11:35.902Z,12.02
2022-11-09T21:14:21.557Z,12.32
2022-11-09T21:17:06.929Z,12.45
2022-11-09T21:19:52.391Z,11.02
2022-11-09T21:23:03.872Z,11.57
2022-11-09T21:26:08.135Z,13.98
2022-11-09T21:29:11.909Z,17.42
2022-11-09T21:31:57.453Z,11.63
2022-11-09T21:34:42.718Z,11.45
2022-11-09T21:37:27.964Z,17.55
2022-11-09T21:40:13.405Z,15.85
2022-11-09T21:42:58.694Z,13.38
2022-11-09T21:45:49.308Z,12.75
2022-11-09T21:48:34.995Z,13.65
2022-11-09T21:51:20.444Z,16.60
2022-11-09T21:54:07.148Z,14.95
2022-11-09T21:56:52.878Z,16.02
2022-11-09T21:59:38.389Z,14.77
2022-11-09T22:02:24.001Z,15.95
2022-11-09T22:05:09.787Z,14.85
2022-11-09T22:07:54.949Z,20.00
2022-11-09T22:10:40.424Z,18.88
2022-11-09T22:13:44.166Z,16.15
2022-11-09T22:16:34.354Z,14.85
2022-11-09T22:19:38.157Z,19.50
2022-11-09T22:22:24.474Z,15.85
2022-11-09T22:25:10.174Z,14.77
2022-11-09T22:27:55.855Z,15.63
2022-11-09T22:30:41.359Z,16.35
2022-11-09T22:33:27.682Z,17.00
2022-11-09T22:36:14.376Z,17.15
2022-11-09T22:38:59.591Z,13.75
2022-11-09T22:41:44.980Z,12.43
2022-11-09T22:44:30.508Z,15.25
2022-11-09T22:47:15.821Z,13.07
2022-11-09T22:50:01.225Z,12.52
2022-11-09T22:52:46.570Z,15.00
2022-11-09T22:55:32.076Z,15.20
2022-11-09T22:58:17.638Z,12.60
2022-11-09T23:01:14.798Z,11.55
2022-11-09T23:04:00.486Z,11.52
2022-11-09T23:06:45.757Z,10.90
2022-11-09T23:09:31.164Z,12.30
2022-11-09T23:12:16.368Z,11.88
2022-11-09T23:15:05.254Z,9.07
2022-11-09T23:18:15.236Z,14.00
2022-11-09T23:21:01.067Z,15.70
2022-11-09T23:23:46.840Z,15.82
2022-11-09T23:26:33.556Z,13.77
2022-11-09T23:29:19.152Z,12.05
2022-11-09T23:32:04.531Z,11.20
2022-11-09T23:34:49.699Z,10.85
2022-11-09T23:37:35.108Z,11.55
2022-11-09T23:40:20.335Z,13.73
2022-11-09T23:43:08.491Z,14.20
2022-11-09T23:45:54.295Z,10.95
2022-11-09T23:48:41.347Z,20.92
2022-11-09T23:51:26.974Z,23.77
2022-11-09T23:54:12.296Z,29.92
2022-11-09T23:56:57.647Z,30.10
2022-11-09T23:59:43.037Z,22.33
